createdAt,value
2018-11-29T00:00:40.564Z,17.90
2018-11-29T00:03:14.330Z,19.63
2018-11-29T00:05:54.148Z,19.07
2018-11-29T00:08:27.676Z,18.57
2018-11-29T00:11:00.974Z,20.20
2018-11-29T00:13:34.604Z,18.97
2018-11-29T00:16:08.148Z,18.00
2018-11-29T00:18:41.646Z,19.13
2018-11-29T00:21:15.270Z,19.23
2018-11-29T00:23:48.747Z,19.03
2018-11-29T00:26:22.281Z,19.07
2018-11-29T00:28:55.842Z,18.57
2018-11-29T00:31:29.362Z,19.70
2018-11-29T00:34:02.887Z,19.80
2018-11-29T00:36:36.417Z,19.10
2018-11-29T00:39:09.861Z,18.60
2018-11-29T00:41:43.496Z,19.00
2018-11-29T00:44:17.152Z,21.27
2018-11-29T00:46:50.815Z,20.73
2018-11-29T00:49:24.535Z,20.07
2018-11-29T00:51:58.086Z,18.97
2018-11-29T00:54:31.399Z,19.47
2018-11-29T00:57:05.166Z,19.40
2018-11-29T00:59:38.805Z,20.37
2018-11-29T01:02:12.370Z,19.37
2018-11-29T01:04:45.765Z,19.30
2018-11-29T01:07:19.473Z,20.53
2018-11-29T01:09:53.078Z,20.90
2018-11-29T01:12:26.670Z,20.77
2018-11-29T01:15:00.207Z,18.40
2018-11-29T01:17:33.699Z,20.83
2018-11-29T01:20:09.149Z,19.60
2018-11-29T01:22:42.712Z,19.50
2018-11-29T01:25:16.685Z,18.87
2018-11-29T01:27:50.277Z,19.80
2018-11-29T01:30:23.775Z,19.93
2018-11-29T01:32:57.262Z,19.67
2018-11-29T01:35:30.923Z,20.93
2018-11-29T01:38:04.370Z,21.60
2018-11-29T01:40:37.869Z,19.90
2018-11-29T01:43:11.467Z,19.57
2018-11-29T01:45:45.156Z,20.93
2018-11-29T01:48:18.746Z,19.53
2018-11-29T01:50:53.075Z,19.80
2018-11-29T01:53:26.582Z,19.87
2018-11-29T01:56:00.127Z,20.00
2018-11-29T01:58:33.751Z,20.60
2018-11-29T02:01:07.386Z,20.17
2018-11-29T02:03:40.885Z,19.63
2018-11-29T02:06:14.263Z,20.20
2018-11-29T02:08:47.786Z,20.17
2018-11-29T02:11:21.588Z,19.67
2018-11-29T02:13:55.130Z,19.07
2018-11-29T02:16:28.679Z,19.77
2018-11-29T02:19:02.174Z,20.17
2018-11-29T02:21:35.688Z,19.67
2018-11-29T02:24:09.156Z,20.20
2018-11-29T02:26:42.723Z,19.50
2018-11-29T02:29:16.301Z,19.93
2018-11-29T02:31:49.820Z,19.50
2018-11-29T02:34:23.298Z,19.87
2018-11-29T02:36:57.026Z,19.83
2018-11-29T02:39:30.595Z,20.67
2018-11-29T02:42:04.443Z,19.63
2018-11-29T02:44:38.141Z,19.77
2018-11-29T02:47:11.634Z,20.90
2018-11-29T02:49:45.105Z,19.03
2018-11-29T02:52:18.591Z,19.37
2018-11-29T02:54:52.063Z,19.77
2018-11-29T02:57:25.425Z,20.43
2018-11-29T02:59:58.751Z,19.23
2018-11-29T03:02:32.338Z,19.47
2018-11-29T03:05:06.029Z,18.63
2018-11-29T03:07:39.642Z,19.70
2018-11-29T03:10:13.810Z,19.23
2018-11-29T03:12:47.415Z,19.40
2018-11-29T03:15:20.901Z,19.03
2018-11-29T03:17:54.380Z,19.77
2018-11-29T03:20:27.902Z,20.17
2018-11-29T03:23:01.365Z,20.03
2018-11-29T03:25:34.891Z,18.70
2018-11-29T03:28:08.426Z,19.43
2018-11-29T03:30:41.968Z,19.23
2018-11-29T03:33:15.340Z,19.67
2018-11-29T03:35:48.787Z,20.27
2018-11-29T03:38:22.141Z,19.20
2018-11-29T03:40:55.782Z,20.17
2018-11-29T03:43:29.213Z,19.00
2018-11-29T03:46:02.663Z,18.80
2018-11-29T03:48:36.016Z,19.17
2018-11-29T03:51:09.406Z,19.43
2018-11-29T03:53:42.854Z,19.20
2018-11-29T03:56:16.393Z,20.13
2018-11-29T03:58:50.021Z,19.27
2018-11-29T04:01:23.367Z,19.47
2018-11-29T04:03:56.752Z,19.07
2018-11-29T04:06:30.357Z,19.87
2018-11-29T04:09:07.967Z,20.07
2018-11-29T04:11:41.342Z,19.70
2018-11-29T04:14:14.794Z,19.70
2018-11-29T04:16:48.337Z,20.30
2018-11-29T04:19:22.009Z,19.13
2018-11-29T04:21:55.848Z,20.23
2018-11-29T04:24:29.538Z,20.03
2018-11-29T04:27:03.002Z,19.93
2018-11-29T04:29:36.563Z,21.67
2018-11-29T04:32:09.946Z,19.70
2018-11-29T04:34:43.443Z,20.70
2018-11-29T04:37:16.906Z,21.70
2018-11-29T04:39:50.360Z,20.67
2018-11-29T04:42:24.122Z,20.43
2018-11-29T04:44:57.451Z,20.07
2018-11-29T04:47:30.993Z,20.33
2018-11-29T04:50:04.826Z,18.80
2018-11-29T04:52:38.349Z,21.53
2018-11-29T04:55:11.901Z,20.43
2018-11-29T04:57:45.439Z,20.17
2018-11-29T05:00:19.155Z,20.90
2018-11-29T05:02:52.553Z,22.17
2018-11-29T05:05:25.975Z,21.20
2018-11-29T05:07:59.500Z,20.93
2018-11-29T05:10:33.134Z,21.23
2018-11-29T05:13:06.725Z,22.77
2018-11-29T05:15:40.959Z,21.87
2018-11-29T05:18:14.387Z,21.30
2018-11-29T05:20:48.060Z,22.27
2018-11-29T05:23:21.423Z,22.57
2018-11-29T05:25:54.852Z,21.03
2018-11-29T05:28:28.158Z,22.43
2018-11-29T05:31:01.733Z,22.53
2018-11-29T05:33:35.086Z,22.27
2018-11-29T05:36:08.650Z,22.07
2018-11-29T05:38:42.331Z,22.10
2018-11-29T05:41:15.783Z,22.90
2018-11-29T05:43:49.318Z,21.93
2018-11-29T05:46:22.725Z,20.57
2018-11-29T05:48:56.421Z,21.30
2018-11-29T05:51:30.065Z,22.03
2018-11-29T05:54:03.798Z,22.77
2018-11-29T05:56:37.429Z,21.97
2018-11-29T05:59:10.768Z,20.83
2018-11-29T06:01:44.858Z,20.40
2018-11-29T06:04:18.594Z,22.30
2018-11-29T06:06:52.114Z,22.90
2018-11-29T06:09:25.435Z,23.53
2018-11-29T06:11:59.181Z,21.83
2018-11-29T06:14:32.704Z,22.73
2018-11-29T06:17:06.103Z,22.53
2018-11-29T06:19:39.496Z,22.73
2018-11-29T06:22:13.047Z,22.40
2018-11-29T06:24:46.530Z,22.37
2018-11-29T06:27:20.060Z,24.33
2018-11-29T06:29:53.552Z,22.23
2018-11-29T06:32:28.152Z,23.13
2018-11-29T06:35:01.625Z,22.30
2018-11-29T06:37:35.214Z,22.73
2018-11-29T06:40:09.921Z,23.13
2018-11-29T06:42:43.415Z,24.53
2018-11-29T06:45:19.868Z,22.80
2018-11-29T06:47:53.285Z,22.87
2018-11-29T06:50:26.856Z,22.10
2018-11-29T06:53:00.425Z,22.07
2018-11-29T06:55:34.063Z,24.17
2018-11-29T06:58:07.686Z,24.63
2018-11-29T07:00:41.282Z,23.53
2018-11-29T07:03:14.706Z,23.27
2018-11-29T07:05:48.054Z,21.60
2018-11-29T07:08:21.636Z,24.03
2018-11-29T07:10:55.049Z,22.47
2018-11-29T07:13:28.492Z,23.87
2018-11-29T07:16:01.926Z,22.03
2018-11-29T07:18:35.318Z,25.27
2018-11-29T07:21:19.311Z,23.43
2018-11-29T07:23:53.014Z,22.47
2018-11-29T07:26:26.495Z,23.77
2018-11-29T07:28:59.978Z,23.97
2018-11-29T07:31:33.576Z,23.00
2018-11-29T07:34:06.931Z,22.40
2018-11-29T07:36:40.576Z,24.37
2018-11-29T07:39:14.033Z,23.43
2018-11-29T07:41:47.532Z,23.00
2018-11-29T07:44:22.216Z,22.47
2018-11-29T07:46:55.865Z,23.13
2018-11-29T07:49:29.455Z,21.20
2018-11-29T07:52:02.854Z,21.00
2018-11-29T07:54:36.362Z,21.47
2018-11-29T07:57:09.962Z,22.83
2018-11-29T07:59:43.778Z,24.87
2018-11-29T08:02:17.302Z,25.13
2018-11-29T08:04:50.670Z,23.37
2018-11-29T08:07:24.088Z,22.63
2018-11-29T08:09:57.541Z,22.43
2018-11-29T08:12:31.085Z,21.83
2018-11-29T08:15:06.228Z,22.50
2018-11-29T08:17:39.740Z,26.20
2018-11-29T08:20:14.795Z,21.83
2018-11-29T08:22:48.314Z,21.73
2018-11-29T08:25:21.869Z,22.00
2018-11-29T08:27:55.264Z,22.60
2018-11-29T08:30:29.010Z,22.83
2018-11-29T08:33:02.519Z,22.73
2018-11-29T08:35:36.085Z,22.40
2018-11-29T08:38:09.568Z,24.33
2018-11-29T08:40:43.029Z,22.53
2018-11-29T08:43:16.487Z,23.03
2018-11-29T08:45:50.029Z,22.73
2018-11-29T08:48:23.475Z,23.33
2018-11-29T08:50:57.132Z,22.87
2018-11-29T08:53:30.690Z,22.93
2018-11-29T08:56:05.367Z,22.13
2018-11-29T08:58:38.914Z,22.10
2018-11-29T09:01:12.414Z,22.07
2018-11-29T09:03:45.985Z,22.23
2018-11-29T09:06:19.407Z,23.47
2018-11-29T09:08:53.067Z,21.23
2018-11-29T09:11:26.403Z,20.17
2018-11-29T09:14:00.037Z,23.30
2018-11-29T09:16:33.547Z,20.97
2018-11-29T09:19:07.060Z,21.40
2018-11-29T09:21:40.561Z,22.63
2018-11-29T09:24:14.029Z,22.47
2018-11-29T09:26:47.643Z,22.47
2018-11-29T09:29:21.092Z,21.87
2018-11-29T09:31:54.657Z,20.63
2018-11-29T09:34:28.121Z,22.30
2018-11-29T09:37:01.534Z,21.53
2018-11-29T09:39:35.194Z,21.43
2018-11-29T09:42:08.972Z,21.07
2018-11-29T09:44:42.613Z,21.30
2018-11-29T09:47:16.209Z,21.60
2018-11-29T09:49:50.083Z,19.17
2018-11-29T09:52:23.654Z,20.67
2018-11-29T09:54:57.145Z,20.67
2018-11-29T09:57:30.739Z,19.80
2018-11-29T10:00:08.858Z,21.13
2018-11-29T10:02:44.172Z,22.03
2018-11-29T10:05:17.534Z,21.03
2018-11-29T10:07:51.027Z,21.13
2018-11-29T10:10:24.511Z,20.83
2018-11-29T10:12:58.050Z,21.47
2018-11-29T10:15:31.563Z,20.07
2018-11-29T10:18:05.695Z,20.13
2018-11-29T10:20:40.026Z,20.37
2018-11-29T10:23:13.637Z,20.43
2018-11-29T10:25:47.022Z,20.63
2018-11-29T10:28:20.481Z,21.53
2018-11-29T10:30:56.206Z,20.00
2018-11-29T10:33:29.629Z,19.27
2018-11-29T10:36:03.432Z,19.80
2018-11-29T10:38:36.827Z,20.60
2018-11-29T10:41:10.473Z,19.43
2018-11-29T10:43:45.159Z,19.50
2018-11-29T10:46:18.759Z,19.20
2018-11-29T10:48:52.283Z,20.00
2018-11-29T10:51:25.770Z,18.90
2018-11-29T10:53:59.174Z,19.13
2018-11-29T10:56:32.643Z,19.00
2018-11-29T10:59:06.185Z,20.00
2018-11-29T11:01:43.883Z,19.77
2018-11-29T11:04:18.086Z,19.30
2018-11-29T11:06:51.582Z,18.93
2018-11-29T11:09:25.133Z,20.10
2018-11-29T11:11:59.295Z,19.87
2018-11-29T11:14:32.845Z,19.03
2018-11-29T11:17:06.274Z,20.23
2018-11-29T11:19:39.756Z,19.60
2018-11-29T11:22:13.397Z,19.23
2018-11-29T11:24:46.926Z,20.07
2018-11-29T11:27:20.669Z,18.67
2018-11-29T11:29:54.268Z,17.90
2018-11-29T11:32:27.830Z,19.00
2018-11-29T11:35:01.298Z,18.43
2018-11-29T11:37:35.093Z,19.40
2018-11-29T11:40:11.993Z,18.70
2018-11-29T11:42:45.890Z,18.97
2018-11-29T11:45:19.872Z,18.90
2018-11-29T11:47:53.314Z,19.13
2018-11-29T11:50:26.933Z,17.70
2018-11-29T11:53:00.489Z,18.40
2018-11-29T11:55:34.475Z,17.67
2018-11-29T11:58:08.306Z,18.83
2018-11-29T12:00:42.073Z,18.07
2018-11-29T12:03:16.018Z,18.33
2018-11-29T12:05:49.685Z,18.73
2018-11-29T12:08:23.193Z,19.90
2018-11-29T12:10:56.813Z,19.48
2018-11-29T12:13:30.379Z,17.87
2018-11-29T12:16:04.102Z,19.33
2018-11-29T12:18:37.533Z,18.83
2018-11-29T12:21:11.107Z,18.00
2018-11-29T12:23:44.706Z,17.57
2018-11-29T12:26:18.272Z,18.62
2018-11-29T12:28:51.759Z,18.37
2018-11-29T12:31:25.373Z,20.10
2018-11-29T12:33:58.947Z,18.20
2018-11-29T12:36:32.448Z,18.33
2018-11-29T12:39:08.321Z,19.50
2018-11-29T12:41:41.955Z,18.80
2018-11-29T12:44:15.323Z,19.13
2018-11-29T12:46:48.856Z,19.50
2018-11-29T12:49:22.348Z,18.33
2018-11-29T12:54:35.553Z,18.27
2018-11-29T12:57:09.089Z,16.67
2018-11-29T12:59:42.796Z,18.47
2018-11-29T13:02:16.442Z,17.93
2018-11-29T13:04:50.069Z,18.30
2018-11-29T13:07:23.679Z,19.27
2018-11-29T13:09:57.127Z,18.67
2018-11-29T13:12:30.713Z,17.48
2018-11-29T13:15:08.861Z,17.63
2018-11-29T13:17:42.587Z,17.00
2018-11-29T13:20:16.726Z,18.25
2018-11-29T13:22:50.282Z,16.97
2018-11-29T13:25:25.229Z,18.10
2018-11-29T13:27:58.727Z,18.47
2018-11-29T13:30:32.390Z,18.43
2018-11-29T13:33:07.766Z,18.00
2018-11-29T13:35:41.385Z,17.77
2018-11-29T13:38:15.955Z,17.83
2018-11-29T13:40:49.593Z,16.80
2018-11-29T13:43:23.164Z,17.53
2018-11-29T13:45:56.949Z,18.83
2018-11-29T13:48:30.699Z,18.93
2018-11-29T13:51:04.701Z,17.83
2018-11-29T13:53:38.429Z,17.80
2018-11-29T13:56:12.306Z,17.43
2018-11-29T13:58:46.110Z,17.10
2018-11-29T14:01:19.762Z,17.27
2018-11-29T14:03:53.406Z,17.60
2018-11-29T14:06:27.009Z,17.20
2018-11-29T14:09:00.508Z,16.77
2018-11-29T14:11:34.106Z,17.63
2018-11-29T14:14:08.085Z,18.33
2018-11-29T14:16:41.271Z,17.27
2018-11-29T14:19:14.836Z,17.57
2018-11-29T14:21:51.220Z,18.30
2018-11-29T14:24:22.451Z,17.50
2018-11-29T14:26:55.974Z,18.33
2018-11-29T14:29:29.749Z,17.37
2018-11-29T14:32:03.254Z,17.37
2018-11-29T14:34:36.820Z,17.27
2018-11-29T14:37:10.655Z,16.90
2018-11-29T14:39:44.017Z,16.47
2018-11-29T14:42:17.618Z,17.43
2018-11-29T14:44:51.066Z,17.37
2018-11-29T14:47:24.883Z,17.07
2018-11-29T14:49:58.570Z,15.77
2018-11-29T14:52:32.247Z,16.43
2018-11-29T14:57:40.893Z,16.03
2018-11-29T15:00:14.379Z,17.67
2018-11-29T15:02:49.014Z,14.80
2018-11-29T15:05:25.359Z,16.10
2018-11-29T15:07:58.913Z,16.73
2018-11-29T15:10:32.299Z,15.77
2018-11-29T15:13:07.382Z,16.03
2018-11-29T15:15:41.865Z,16.13
2018-11-29T15:18:15.403Z,16.17
2018-11-29T15:20:48.997Z,15.97
2018-11-29T15:23:22.653Z,16.00
2018-11-29T15:25:56.263Z,16.93
2018-11-29T15:28:29.639Z,16.23
2018-11-29T15:31:03.411Z,16.73
2018-11-29T15:33:37.093Z,14.63
2018-11-29T15:36:10.623Z,15.53
2018-11-29T15:38:44.087Z,14.60
2018-11-29T15:41:18.256Z,15.63
2018-11-29T15:43:52.196Z,15.00
2018-11-29T15:46:25.813Z,13.90
2018-11-29T15:49:00.230Z,15.30
2018-11-29T15:51:32.892Z,14.93
2018-11-29T15:54:06.596Z,14.50
2018-11-29T15:56:40.417Z,15.00
2018-11-29T15:59:14.028Z,13.83
2018-11-29T16:01:47.757Z,15.17
2018-11-29T16:04:21.314Z,14.30
2018-11-29T16:06:55.025Z,14.30
2018-11-29T16:09:28.667Z,15.27
2018-11-29T16:12:02.427Z,14.33
2018-11-29T16:14:35.980Z,14.20
2018-11-29T16:17:09.774Z,14.60
2018-11-29T16:19:43.296Z,14.17
2018-11-29T16:22:16.898Z,14.57
2018-11-29T16:24:50.605Z,13.70
2018-11-29T16:27:24.022Z,14.40
2018-11-29T16:29:57.524Z,13.47
2018-11-29T16:32:30.993Z,14.20
2018-11-29T16:35:05.516Z,14.10
2018-11-29T16:37:39.118Z,13.80
2018-11-29T16:40:12.817Z,12.27
2018-11-29T16:42:46.450Z,13.70
2018-11-29T16:45:20.040Z,13.13
2018-11-29T16:47:53.458Z,13.93
2018-11-29T16:50:27.020Z,14.43
2018-11-29T16:53:00.757Z,13.03
2018-11-29T16:55:34.220Z,13.40
2018-11-29T16:58:11.407Z,12.33
2018-11-29T17:00:44.803Z,14.13
2018-11-29T17:03:18.252Z,13.93
2018-11-29T17:05:51.899Z,14.33
2018-11-29T17:08:25.430Z,12.83
2018-11-29T17:10:58.783Z,13.50
2018-11-29T17:13:32.320Z,12.90
2018-11-29T17:16:06.161Z,14.63
2018-11-29T17:18:39.612Z,14.57
2018-11-29T17:21:13.018Z,11.60
2018-11-29T17:23:46.533Z,13.03
2018-11-29T17:26:19.980Z,12.80
2018-11-29T17:28:53.808Z,13.43
2018-11-29T17:31:27.541Z,11.73
2018-11-29T17:34:01.215Z,13.27
2018-11-29T17:36:34.915Z,13.43
2018-11-29T17:39:08.933Z,12.67
2018-11-29T17:41:42.734Z,12.23
2018-11-29T17:44:16.231Z,12.67
2018-11-29T17:46:49.846Z,13.40
2018-11-29T17:49:23.345Z,12.43
2018-11-29T17:51:56.921Z,11.87
2018-11-29T17:54:30.297Z,12.70
2018-11-29T17:57:03.882Z,12.00
2018-11-29T17:59:37.434Z,12.20
2018-11-29T18:02:11.225Z,11.03
2018-11-29T18:04:45.001Z,12.20
2018-11-29T18:07:18.659Z,11.70
2018-11-29T18:09:52.074Z,12.83
2018-11-29T18:12:25.547Z,13.03
2018-11-29T18:14:59.250Z,12.67
2018-11-29T18:17:32.854Z,12.73
2018-11-29T18:20:08.194Z,11.50
2018-11-29T18:22:42.002Z,11.97
2018-11-29T18:25:16.427Z,13.68
2018-11-29T18:27:51.071Z,16.10
2018-11-29T18:30:24.519Z,13.70
2018-11-29T18:32:58.031Z,19.10
2018-11-29T18:35:31.956Z,14.20
2018-11-29T18:38:06.248Z,13.30
2018-11-29T18:40:39.909Z,14.90
2018-11-29T18:43:13.560Z,12.60
2018-11-29T18:45:47.318Z,13.88
2018-11-29T18:48:20.882Z,13.40
2018-11-29T18:50:54.480Z,10.60
2018-11-29T18:53:28.234Z,10.77
2018-11-29T18:56:01.865Z,10.93
2018-11-29T18:58:35.366Z,11.07
2018-11-29T19:01:08.985Z,13.57
2018-11-29T19:03:42.554Z,12.68
2018-11-29T19:06:16.171Z,23.40
2018-11-29T19:08:49.872Z,11.97
2018-11-29T19:11:23.563Z,12.40
2018-11-29T19:13:57.193Z,11.30
2018-11-29T19:16:30.647Z,10.93
2018-11-29T19:19:04.599Z,11.53
2018-11-29T19:21:38.382Z,10.50
2018-11-29T19:24:11.902Z,11.15
2018-11-29T19:26:45.529Z,11.67
2018-11-29T19:29:19.186Z,11.33
2018-11-29T19:31:52.893Z,11.90
2018-11-29T19:34:26.317Z,12.27
2018-11-29T19:36:59.860Z,11.20
2018-11-29T19:39:34.101Z,10.73
2018-11-29T19:42:08.233Z,11.73
2018-11-29T19:44:41.807Z,11.22
2018-11-29T19:47:15.484Z,10.57
2018-11-29T19:49:49.022Z,10.20
2018-11-29T19:52:23.094Z,10.80
2018-11-29T19:54:56.737Z,10.85
2018-11-29T19:57:30.610Z,10.60
2018-11-29T20:00:05.269Z,10.80
2018-11-29T20:02:39.113Z,11.60
2018-11-29T20:05:12.699Z,10.43
2018-11-29T20:07:46.170Z,10.58
2018-11-29T20:10:19.902Z,10.47
2018-11-29T20:12:59.890Z,11.30
2018-11-29T20:15:35.336Z,10.53
2018-11-29T20:18:10.814Z,11.17
2018-11-29T20:20:44.286Z,10.20
2018-11-29T20:23:17.914Z,10.67
2018-11-29T20:25:51.469Z,10.43
2018-11-29T20:28:24.967Z,10.77
2018-11-29T20:30:58.549Z,11.13
2018-11-29T20:33:32.071Z,10.33
2018-11-29T20:36:05.689Z,10.10
2018-11-29T20:38:39.080Z,9.63
2018-11-29T20:41:12.579Z,9.60
2018-11-29T20:43:46.010Z,10.00
2018-11-29T20:46:20.015Z,10.23
2018-11-29T20:48:53.719Z,9.70
2018-11-29T20:51:27.068Z,10.30
2018-11-29T20:54:00.528Z,10.23
2018-11-29T20:56:34.120Z,9.47
2018-11-29T20:59:08.069Z,9.58
2018-11-29T21:01:41.810Z,9.80
2018-11-29T21:04:15.575Z,9.33
2018-11-29T21:06:49.611Z,11.33
2018-11-29T21:09:24.686Z,10.00
2018-11-29T21:11:58.314Z,9.13
2018-11-29T21:14:32.704Z,10.13
2018-11-29T21:17:06.243Z,9.83
2018-11-29T21:19:40.009Z,9.77
2018-11-29T21:22:13.927Z,10.35
2018-11-29T21:24:47.680Z,9.13
2018-11-29T21:27:21.327Z,8.90
2018-11-29T21:29:54.759Z,9.38
2018-11-29T21:32:28.753Z,9.43
2018-11-29T21:35:02.272Z,8.73
2018-11-29T21:37:35.635Z,8.67
2018-11-29T21:40:11.141Z,8.70
2018-11-29T21:42:44.768Z,8.45
2018-11-29T21:45:18.629Z,9.05
2018-11-29T21:47:52.200Z,9.47
2018-11-29T21:50:25.700Z,7.60
2018-11-29T21:52:59.221Z,8.55
2018-11-29T21:55:32.879Z,7.80
2018-11-29T21:58:06.552Z,9.13
2018-11-29T22:00:40.115Z,8.97
2018-11-29T22:03:13.804Z,8.85
2018-11-29T22:05:47.395Z,8.78
2018-11-29T22:08:21.007Z,8.90
2018-11-29T22:10:54.618Z,8.27
2018-11-29T22:13:28.200Z,8.90
2018-11-29T22:16:01.722Z,8.77
2018-11-29T22:18:35.299Z,8.40
2018-11-29T22:21:08.824Z,9.65
2018-11-29T22:23:42.315Z,8.73
2018-11-29T22:26:22.951Z,8.48
2018-11-29T22:28:56.366Z,8.40
2018-11-29T22:31:30.058Z,9.53
2018-11-29T22:34:03.664Z,8.10
2018-11-29T22:36:37.339Z,9.70
2018-11-29T22:39:10.983Z,8.33
2018-11-29T22:41:45.505Z,8.40
2018-11-29T22:44:19.118Z,7.40
2018-11-29T22:46:52.591Z,8.45
2018-11-29T22:49:26.370Z,7.53
2018-11-29T22:51:59.958Z,8.30
2018-11-29T22:54:33.510Z,7.45
2018-11-29T22:57:06.884Z,7.67
2018-11-29T22:59:40.466Z,7.72
2018-11-29T23:02:13.948Z,7.20
2018-11-29T23:04:47.465Z,7.70
2018-11-29T23:07:20.839Z,7.40
2018-11-29T23:09:54.521Z,7.28
2018-11-29T23:12:28.076Z,7.47
2018-11-29T23:15:01.595Z,7.03
2018-11-29T23:17:35.273Z,7.50
2018-11-29T23:20:12.669Z,6.92
2018-11-29T23:22:46.367Z,7.05
2018-11-29T23:25:19.811Z,6.65
2018-11-29T23:27:53.223Z,6.03
2018-11-29T23:30:26.798Z,5.87
2018-11-29T23:33:00.435Z,7.15
2018-11-29T23:35:33.862Z,6.33
2018-11-29T23:38:07.367Z,6.72
2018-11-29T23:40:40.961Z,6.33
2018-11-29T23:43:14.441Z,5.83
2018-11-29T23:45:48.194Z,6.50
2018-11-29T23:48:21.697Z,5.97
2018-11-29T23:50:55.263Z,6.13
2018-11-29T23:53:28.881Z,6.03
2018-11-29T23:56:02.553Z,7.17
2018-11-29T23:58:36.054Z,6.97
